Aérodrome :
LOGIN :

S'inscrire | Disclaimer

   EN    FR    IT 

 










Légende :    VFR   VFR Marginal   IFR   IFR Intensif   IFR Très Intensif
Visi : 
Plafond : 
>= 8 km
>= 3000ft
5 à 8 km
1000 à 3000 ft
1500m à 5 km
500 à 1000 ft
800 à 1500m
200 à 500 ft
< 800m
< 200 ft
Symboles :   Orages  Brouillard  Fortes neiges  Fortes précipitations  Vent > 20 kt
SIGMETs :   Divers  Orages  Givrage  Turbulence  Onde Orograph.  Cendres Volcan.







- Altitude de l'aérodrome : 1416 ft
- Code IATA : ZRH


LSZH - Zurich

DERNIER METAR :
  • 222350Z 00000KT CAVOK 05/02 Q1015 NOSIG

METARs EXPIRÉS :
  • 222320Z 17004KT CAVOK 06/03 Q1015 NOSIG
  • 222250Z 14003KT 120V190 CAVOK 06/03 Q1016 NOSIG
  • 222220Z VRB02KT CAVOK 07/03 Q1016 NOSIG
  • 222150Z 28004KT 9999 SCT065 BKN160 07/04 Q1016 NOSIG
  • 222120Z 30006KT 9999 BKN065 07/04 Q1016 NOSIG

TAF TAF LSZH
Valide du 23 à 00h jusqu'au 24 à 06h UTC


222325Z 2300/2406 VRB03KT CAVOK TX17/2314Z TN04/2306Z TN05/2406Z
PROB40 2302/2307 4500 BR BKN010
BECMG 2310/2313 21012G25KT
TEMPO 2314/2405 24018G35KT
BECMG 2317/2320 9999 SCT040 BKN080
TEMPO 2321/2403 4000 SHRA BKN020
PROB30
TEMPO 2321/2403 28025G40KT
ATIS : +41 43 816 2295 (DEP) +41 43 816 2294 (ARR)
Pas de NOTAMs connus pour ce terrain.



MET'MAP, la Météo Aéronautique d'un coup d'oeil ! - Copyright ORBIFLY Décembre 2007 - Disclaimer

ORBIFLY MET'MAP TEAM :

Programmation & Développement : Alexandra Zaïnal
Conception & Développement : Baudouin d'Aumeries
Co-Programmation & Développement : Marc-Olivier Méhu
Soutien technique & logistique : Manuel Goepfert

Contact : metmap@orbifly.com




SOURCES & CREDITS :

   NOAA